sensor_id;sensor_type;location;lat;lon;timestamp;temperature;humidity
10451;DHT22;5273;51.290;6.918;2023-10-13T00:01:56;17.00;99.90
10451;DHT22;5273;51.290;6.918;2023-10-13T00:04:24;17.00;99.90
10451;DHT22;5273;51.290;6.918;2023-10-13T00:06:51;17.10;99.90
10451;DHT22;5273;51.290;6.918;2023-10-13T00:09:18;17.10;99.90
10451;DHT22;5273;51.290;6.918;2023-10-13T00:11:50;17.10;99.90
10451;DHT22;5273;51.290;6.918;2023-10-13T00:14:18;17.10;99.90
10451;DHT22;5273;51.290;6.918;2023-10-13T00:16:46;17.10;99.90
10451;DHT22;5273;51.290;6.918;2023-10-13T00:19:29;17.00;99.90
10451;DHT22;5273;51.290;6.918;2023-10-13T00:22:03;17.00;99.90
10451;DHT22;5273;51.290;6.918;2023-10-13T00:24:34;17.10;99.90
10451;DHT22;5273;51.290;6.918;2023-10-13T00:27:08;17.10;99.90
10451;DHT22;5273;51.290;6.918;2023-10-13T00:29:50;17.10;99.90
10451;DHT22;5273;51.290;6.918;2023-10-13T00:32:16;17.10;99.90
10451;DHT22;5273;51.290;6.918;2023-10-13T00:34:50;17.10;99.90
10451;DHT22;5273;51.290;6.918;2023-10-13T00:37:20;17.00;99.90
10451;DHT22;5273;51.290;6.918;2023-10-13T00:39:54;17.10;99.90
10451;DHT22;5273;51.290;6.918;2023-10-13T00:42:22;17.10;99.90
10451;DHT22;5273;51.290;6.918;2023-10-13T00:44:58;17.10;99.90
10451;DHT22;5273;51.290;6.918;2023-10-13T00:47:26;17.10;99.90
10451;DHT22;5273;51.290;6.918;2023-10-13T00:50:15;17.10;99.90
10451;DHT22;5273;51.290;6.918;2023-10-13T00:52:44;17.10;99.90
10451;DHT22;5273;51.290;6.918;2023-10-13T00:55:13;17.00;99.90
10451;DHT22;5273;51.290;6.918;2023-10-13T00:57:40;17.00;99.90
10451;DHT22;5273;51.290;6.918;2023-10-13T01:00:08;17.20;99.90
10451;DHT22;5273;51.290;6.918;2023-10-13T01:02:44;17.10;99.90
10451;DHT22;5273;51.290;6.918;2023-10-13T01:05:21;17.10;99.90
10451;DHT22;5273;51.290;6.918;2023-10-13T01:07:49;17.10;99.90
10451;DHT22;5273;51.290;6.918;2023-10-13T01:10:19;17.10;99.90
10451;DHT22;5273;51.290;6.918;2023-10-13T01:12:45;17.10;99.90
10451;DHT22;5273;51.290;6.918;2023-10-13T01:15:13;17.10;99.90
10451;DHT22;5273;51.290;6.918;2023-10-13T01:17:43;17.10;99.90
10451;DHT22;5273;51.290;6.918;2023-10-13T01:20:12;17.10;99.90
10451;DHT22;5273;51.290;6.918;2023-10-13T01:22:45;17.10;99.90
10451;DHT22;5273;51.290;6.918;2023-10-13T01:25:22;17.10;99.90
10451;DHT22;5273;51.290;6.918;2023-10-13T01:27:51;17.10;99.90
10451;DHT22;5273;51.290;6.918;2023-10-13T01:30:19;17.10;99.90
10451;DHT22;5273;51.290;6.918;2023-10-13T01:32:48;17.00;99.90
10451;DHT22;5273;51.290;6.918;2023-10-13T01:35:16;17.00;99.90
10451;DHT22;5273;51.290;6.918;2023-10-13T01:37:44;17.10;99.90
10451;DHT22;5273;51.290;6.918;2023-10-13T01:40:11;17.10;99.90
10451;DHT22;5273;51.290;6.918;2023-10-13T01:42:39;17.10;99.90
10451;DHT22;5273;51.290;6.918;2023-10-13T01:45:06;17.10;99.90
10451;DHT22;5273;51.290;6.918;2023-10-13T01:47:32;17.00;99.90
10451;DHT22;5273;51.290;6.918;2023-10-13T01:49:59;17.00;99.90
10451;DHT22;5273;51.290;6.918;2023-10-13T01:52:38;17.00;99.90
10451;DHT22;5273;51.290;6.918;2023-10-13T01:55:08;17.00;99.90
10451;DHT22;5273;51.290;6.918;2023-10-13T01:57:35;17.00;99.90
10451;DHT22;5273;51.290;6.918;2023-10-13T02:00:05;17.00;99.90
10451;DHT22;5273;51.290;6.918;2023-10-13T02:02:37;17.00;99.90
10451;DHT22;5273;51.290;6.918;2023-10-13T02:05:10;17.10;99.90
10451;DHT22;5273;51.290;6.918;2023-10-13T02:07:37;17.10;99.90
10451;DHT22;5273;51.290;6.918;2023-10-13T02:10:11;17.10;99.90
10451;DHT22;5273;51.290;6.918;2023-10-13T02:12:37;17.10;99.90
10451;DHT22;5273;51.290;6.918;2023-10-13T02:15:11;17.10;99.90
10451;DHT22;5273;51.290;6.918;2023-10-13T02:17:46;17.10;99.90
10451;DHT22;5273;51.290;6.918;2023-10-13T02:20:17;17.10;99.90
10451;DHT22;5273;51.290;6.918;2023-10-13T02:22:44;17.10;99.90
10451;DHT22;5273;51.290;6.918;2023-10-13T02:25:15;17.00;99.90
10451;DHT22;5273;51.290;6.918;2023-10-13T02:27:43;17.10;99.90
10451;DHT22;5273;51.290;6.918;2023-10-13T02:30:15;17.00;99.90
10451;DHT22;5273;51.290;6.918;2023-10-13T02:32:41;17.00;99.90
10451;DHT22;5273;51.290;6.918;2023-10-13T02:35:09;17.00;99.90
10451;DHT22;5273;51.290;6.918;2023-10-13T02:37:41;17.00;99.90
10451;DHT22;5273;51.290;6.918;2023-10-13T02:40:10;17.00;99.90
10451;DHT22;5273;51.290;6.918;2023-10-13T02:42:36;17.00;99.90
10451;DHT22;5273;51.290;6.918;2023-10-13T02:45:05;17.00;99.90
10451;DHT22;5273;51.290;6.918;2023-10-13T02:47:34;17.00;99.90
10451;DHT22;5273;51.290;6.918;2023-10-13T02:50:01;16.90;99.90
10451;DHT22;5273;51.290;6.918;2023-10-13T02:52:37;17.00;99.90
10451;DHT22;5273;51.290;6.918;2023-10-13T02:55:07;17.00;99.90
10451;DHT22;5273;51.290;6.918;2023-10-13T02:57:35;17.00;99.90
10451;DHT22;5273;51.290;6.918;2023-10-13T03:00:03;16.90;99.90
10451;DHT22;5273;51.290;6.918;2023-10-13T03:02:39;16.90;99.90
10451;DHT22;5273;51.290;6.918;2023-10-13T03:05:10;16.90;99.90
10451;DHT22;5273;51.290;6.918;2023-10-13T03:07:39;16.80;99.90
10451;DHT22;5273;51.290;6.918;2023-10-13T03:10:09;16.80;99.90
10451;DHT22;5273;51.290;6.918;2023-10-13T03:12:36;16.80;99.90
10451;DHT22;5273;51.290;6.918;2023-10-13T03:15:04;16.80;99.90
10451;DHT22;5273;51.290;6.918;2023-10-13T03:17:45;16.80;99.90
10451;DHT22;5273;51.290;6.918;2023-10-13T03:20:12;16.80;99.90
10451;DHT22;5273;51.290;6.918;2023-10-13T03:22:40;16.60;99.90
10451;DHT22;5273;51.290;6.918;2023-10-13T03:25:10;16.80;99.90
10451;DHT22;5273;51.290;6.918;2023-10-13T03:27:56;16.80;99.90
10451;DHT22;5273;51.290;6.918;2023-10-13T03:30:30;16.80;99.90
10451;DHT22;5273;51.290;6.918;2023-10-13T03:33:04;16.60;99.90
10451;DHT22;5273;51.290;6.918;2023-10-13T03:35:34;16.70;99.90
10451;DHT22;5273;51.290;6.918;2023-10-13T03:38:05;16.70;99.90
10451;DHT22;5273;51.290;6.918;2023-10-13T03:40:40;16.70;99.90
10451;DHT22;5273;51.290;6.918;2023-10-13T03:43:07;16.70;99.90
10451;DHT22;5273;51.290;6.918;2023-10-13T03:45:37;16.70;99.90
10451;DHT22;5273;51.290;6.918;2023-10-13T03:48:07;16.70;99.90
10451;DHT22;5273;51.290;6.918;2023-10-13T03:50:54;16.70;99.90
10451;DHT22;5273;51.290;6.918;2023-10-13T03:53:28;16.70;99.90
10451;DHT22;5273;51.290;6.918;2023-10-13T03:55:59;16.70;99.90
10451;DHT22;5273;51.290;6.918;2023-10-13T03:58:34;16.70;99.90
10451;DHT22;5273;51.290;6.918;2023-10-13T04:01:02;16.70;99.90
10451;DHT22;5273;51.290;6.918;2023-10-13T04:03:32;16.80;99.90
10451;DHT22;5273;51.290;6.918;2023-10-13T04:06:08;16.80;99.90
10451;DHT22;5273;51.290;6.918;2023-10-13T04:08:42;16.70;99.90
10451;DHT22;5273;51.290;6.918;2023-10-13T04:11:14;16.70;99.90
10451;DHT22;5273;51.290;6.918;2023-10-13T04:13:58;16.70;99.90
10451;DHT22;5273;51.290;6.918;2023-10-13T04:16:42;16.70;99.90
10451;DHT22;5273;51.290;6.918;2023-10-13T04:19:19;16.70;99.90
10451;DHT22;5273;51.290;6.918;2023-10-13T04:21:54;16.70;99.90
10451;DHT22;5273;51.290;6.918;2023-10-13T04:24:25;16.70;99.90
10451;DHT22;5273;51.290;6.918;2023-10-13T04:27:20;16.80;99.90
10451;DHT22;5273;51.290;6.918;2023-10-13T04:30:10;16.80;99.90
10451;DHT22;5273;51.290;6.918;2023-10-13T04:32:45;16.80;99.90
10451;DHT22;5273;51.290;6.918;2023-10-13T04:35:19;16.80;99.90
10451;DHT22;5273;51.290;6.918;2023-10-13T04:37:50;16.80;99.90
10451;DHT22;5273;51.290;6.918;2023-10-13T04:40:18;16.80;99.90
10451;DHT22;5273;51.290;6.918;2023-10-13T04:42:50;16.90;99.90
10451;DHT22;5273;51.290;6.918;2023-10-13T04:45:19;16.80;99.90
10451;DHT22;5273;51.290;6.918;2023-10-13T04:48:12;16.80;99.90
10451;DHT22;5273;51.290;6.918;2023-10-13T04:50:59;16.80;99.90
10451;DHT22;5273;51.290;6.918;2023-10-13T04:53:40;16.80;99.90
10451;DHT22;5273;51.290;6.918;2023-10-13T04:56:36;16.80;99.90
10451;DHT22;5273;51.290;6.918;2023-10-13T04:59:20;16.80;99.90
10451;DHT22;5273;51.290;6.918;2023-10-13T05:02:31;16.80;99.90
10451;DHT22;5273;51.290;6.918;2023-10-13T05:05:15;16.80;99.90
10451;DHT22;5273;51.290;6.918;2023-10-13T05:08:08;16.80;99.90
10451;DHT22;5273;51.290;6.918;2023-10-13T05:11:01;16.80;99.90
10451;DHT22;5273;51.290;6.918;2023-10-13T05:13:46;16.90;99.90
10451;DHT22;5273;51.290;6.918;2023-10-13T05:16:30;16.80;99.90
10451;DHT22;5273;51.290;6.918;2023-10-13T05:19:16;16.80;99.90
10451;DHT22;5273;51.290;6.918;2023-10-13T05:22:00;16.70;99.90
10451;DHT22;5273;51.290;6.918;2023-10-13T05:24:44;16.80;99.90
10451;DHT22;5273;51.290;6.918;2023-10-13T05:27:28;16.80;99.90
10451;DHT22;5273;51.290;6.918;2023-10-13T05:30:12;16.70;99.90
10451;DHT22;5273;51.290;6.918;2023-10-13T05:32:57;16.80;99.90
10451;DHT22;5273;51.290;6.918;2023-10-13T05:35:42;16.80;99.90
10451;DHT22;5273;51.290;6.918;2023-10-13T05:38:26;16.80;99.90
10451;DHT22;5273;51.290;6.918;2023-10-13T05:41:10;16.80;99.90
10451;DHT22;5273;51.290;6.918;2023-10-13T05:43:54;16.70;99.90
10451;DHT22;5273;51.290;6.918;2023-10-13T05:46:39;16.70;99.90
10451;DHT22;5273;51.290;6.918;2023-10-13T05:49:23;16.70;99.90
10451;DHT22;5273;51.290;6.918;2023-10-13T05:52:05;16.70;99.90
10451;DHT22;5273;51.290;6.918;2023-10-13T05:54:45;16.70;99.90
10451;DHT22;5273;51.290;6.918;2023-10-13T05:57:29;16.70;99.90
10451;DHT22;5273;51.290;6.918;2023-10-13T06:00:14;16.70;99.90
10451;DHT22;5273;51.290;6.918;2023-10-13T06:02:58;16.80;99.90
10451;DHT22;5273;51.290;6.918;2023-10-13T06:05:42;16.70;99.90
10451;DHT22;5273;51.290;6.918;2023-10-13T06:08:28;16.80;99.90
10451;DHT22;5273;51.290;6.918;2023-10-13T06:11:12;16.80;99.90
10451;DHT22;5273;51.290;6.918;2023-10-13T06:13:56;16.80;99.90
10451;DHT22;5273;51.290;6.918;2023-10-13T06:16:40;16.90;99.90
10451;DHT22;5273;51.290;6.918;2023-10-13T06:19:24;16.90;99.90
10451;DHT22;5273;51.290;6.918;2023-10-13T06:22:08;16.90;99.90
10451;DHT22;5273;51.290;6.918;2023-10-13T06:24:54;16.90;99.90
10451;DHT22;5273;51.290;6.918;2023-10-13T06:27:38;16.90;99.90
10451;DHT22;5273;51.290;6.918;2023-10-13T06:30:22;16.90;99.90
10451;DHT22;5273;51.290;6.918;2023-10-13T06:32:49;16.90;99.90
10451;DHT22;5273;51.290;6.918;2023-10-13T06:35:16;16.90;99.90
10451;DHT22;5273;51.290;6.918;2023-10-13T06:37:48;16.90;99.90
10451;DHT22;5273;51.290;6.918;2023-10-13T06:40:17;17.00;99.90
10451;DHT22;5273;51.290;6.918;2023-10-13T06:42:58;16.90;99.90
10451;DHT22;5273;51.290;6.918;2023-10-13T06:45:37;16.90;99.90
10451;DHT22;5273;51.290;6.918;2023-10-13T06:48:05;16.90;99.90
10451;DHT22;5273;51.290;6.918;2023-10-13T06:50:36;16.90;99.90
10451;DHT22;5273;51.290;6.918;2023-10-13T06:53:07;17.00;99.90
10451;DHT22;5273;51.290;6.918;2023-10-13T06:55:39;17.00;99.90
10451;DHT22;5273;51.290;6.918;2023-10-13T06:58:06;17.10;99.90
10451;DHT22;5273;51.290;6.918;2023-10-13T07:00:38;17.00;99.90
10451;DHT22;5273;51.290;6.918;2023-10-13T07:03:18;17.10;99.90
10451;DHT22;5273;51.290;6.918;2023-10-13T07:05:45;17.10;99.90
10451;DHT22;5273;51.290;6.918;2023-10-13T07:08:14;17.20;99.90
10451;DHT22;5273;51.290;6.918;2023-10-13T07:10:49;17.10;99.90
10451;DHT22;5273;51.290;6.918;2023-10-13T07:13:27;17.20;99.90
10451;DHT22;5273;51.290;6.918;2023-10-13T07:15:54;17.20;99.90
10451;DHT22;5273;51.290;6.918;2023-10-13T07:18:27;17.20;99.90
10451;DHT22;5273;51.290;6.918;2023-10-13T07:21:01;17.30;99.90
10451;DHT22;5273;51.290;6.918;2023-10-13T07:23:35;17.30;99.90
10451;DHT22;5273;51.290;6.918;2023-10-13T07:26:05;17.40;99.90
10451;DHT22;5273;51.290;6.918;2023-10-13T07:28:34;17.30;99.90
10451;DHT22;5273;51.290;6.918;2023-10-13T07:31:02;17.30;99.90
10451;DHT22;5273;51.290;6.918;2023-10-13T07:33:41;17.30;99.90
10451;DHT22;5273;51.290;6.918;2023-10-13T07:36:09;17.40;99.90
10451;DHT22;5273;51.290;6.918;2023-10-13T07:38:43;17.40;99.90
10451;DHT22;5273;51.290;6.918;2023-10-13T07:41:15;17.40;99.90
10451;DHT22;5273;51.290;6.918;2023-10-13T07:43:43;17.40;99.90
10451;DHT22;5273;51.290;6.918;2023-10-13T07:46:11;17.40;99.90
10451;DHT22;5273;51.290;6.918;2023-10-13T07:48:38;17.60;99.90
10451;DHT22;5273;51.290;6.918;2023-10-13T07:51:08;17.60;99.90
10451;DHT22;5273;51.290;6.918;2023-10-13T07:53:36;17.70;99.90
10451;DHT22;5273;51.290;6.918;2023-10-13T07:56:06;17.80;99.90
10451;DHT22;5273;51.290;6.918;2023-10-13T07:58:35;17.70;99.90
10451;DHT22;5273;51.290;6.918;2023-10-13T08:01:13;17.80;99.90
10451;DHT22;5273;51.290;6.918;2023-10-13T08:03:44;17.80;99.90
10451;DHT22;5273;51.290;6.918;2023-10-13T08:06:12;17.80;99.90
10451;DHT22;5273;51.290;6.918;2023-10-13T08:08:46;18.10;99.90
10451;DHT22;5273;51.290;6.918;2023-10-13T08:11:16;18.30;99.90
10451;DHT22;5273;51.290;6.918;2023-10-13T08:13:58;18.60;99.90
10451;DHT22;5273;51.290;6.918;2023-10-13T08:16:26;18.80;99.90
10451;DHT22;5273;51.290;6.918;2023-10-13T08:19:11;18.90;99.90
10451;DHT22;5273;51.290;6.918;2023-10-13T08:21:40;18.80;99.90
10451;DHT22;5273;51.290;6.918;2023-10-13T08:24:15;18.80;99.90
10451;DHT22;5273;51.290;6.918;2023-10-13T08:26:50;18.70;99.90
10451;DHT22;5273;51.290;6.918;2023-10-13T08:29:35;18.80;99.90
10451;DHT22;5273;51.290;6.918;2023-10-13T08:32:34;19.40;99.90
10451;DHT22;5273;51.290;6.918;2023-10-13T08:35:20;19.90;99.90
10451;DHT22;5273;51.290;6.918;2023-10-13T08:37:59;20.30;99.90
10451;DHT22;5273;51.290;6.918;2023-10-13T08:40:30;20.70;99.90
10451;DHT22;5273;51.290;6.918;2023-10-13T08:43:14;20.60;99.90
10451;DHT22;5273;51.290;6.918;2023-10-13T08:45:44;20.60;99.90
10451;DHT22;5273;51.290;6.918;2023-10-13T08:48:20;20.90;99.90
10451;DHT22;5273;51.290;6.918;2023-10-13T08:50:57;21.30;99.90
10451;DHT22;5273;51.290;6.918;2023-10-13T08:53:30;21.60;99.90
10451;DHT22;5273;51.290;6.918;2023-10-13T08:55:59;22.10;99.90
10451;DHT22;5273;51.290;6.918;2023-10-13T08:58:35;22.30;99.90
10451;DHT22;5273;51.290;6.918;2023-10-13T09:01:23;22.40;99.90
10451;DHT22;5273;51.290;6.918;2023-10-13T09:04:04;22.30;99.90
10451;DHT22;5273;51.290;6.918;2023-10-13T09:06:50;22.20;99.90
10451;DHT22;5273;51.290;6.918;2023-10-13T09:09:48;22.10;99.90
10451;DHT22;5273;51.290;6.918;2023-10-13T09:12:37;22.00;99.90
10451;DHT22;5273;51.290;6.918;2023-10-13T09:15:07;22.70;99.90
10451;DHT22;5273;51.290;6.918;2023-10-13T09:17:51;23.60;99.90
10451;DHT22;5273;51.290;6.918;2023-10-13T09:20:38;24.60;99.90
10451;DHT22;5273;51.290;6.918;2023-10-13T09:23:11;25.50;99.90
10451;DHT22;5273;51.290;6.918;2023-10-13T09:25:39;25.90;99.80
10451;DHT22;5273;51.290;6.918;2023-10-13T09:28:19;25.70;98.70
10451;DHT22;5273;51.290;6.918;2023-10-13T09:30:49;25.60;99.30
10451;DHT22;5273;51.290;6.918;2023-10-13T09:33:22;25.90;98.00
10451;DHT22;5273;51.290;6.918;2023-10-13T09:35:55;26.30;97.20
10451;DHT22;5273;51.290;6.918;2023-10-13T09:38:25;26.40;96.70
10451;DHT22;5273;51.290;6.918;2023-10-13T09:40:51;26.50;96.80
10451;DHT22;5273;51.290;6.918;2023-10-13T09:43:22;26.70;96.00
10451;DHT22;5273;51.290;6.918;2023-10-13T09:45:49;26.90;96.60
10451;DHT22;5273;51.290;6.918;2023-10-13T09:48:34;27.20;95.10
10451;DHT22;5273;51.290;6.918;2023-10-13T09:51:02;27.60;93.60
10451;DHT22;5273;51.290;6.918;2023-10-13T09:53:36;28.00;93.60
10451;DHT22;5273;51.290;6.918;2023-10-13T09:56:10;28.20;93.10
10451;DHT22;5273;51.290;6.918;2023-10-13T09:58:47;28.70;91.70
10451;DHT22;5273;51.290;6.918;2023-10-13T10:01:25;28.40;91.40
10451;DHT22;5273;51.290;6.918;2023-10-13T10:04:09;27.90;94.10
10451;DHT22;5273;51.290;6.918;2023-10-13T10:06:37;28.20;91.80
10451;DHT22;5273;51.290;6.918;2023-10-13T10:09:11;28.40;92.20
10451;DHT22;5273;51.290;6.918;2023-10-13T10:12:01;28.40;92.60
10451;DHT22;5273;51.290;6.918;2023-10-13T10:14:50;28.20;92.10
10451;DHT22;5273;51.290;6.918;2023-10-13T10:17:23;27.90;92.20
10451;DHT22;5273;51.290;6.918;2023-10-13T10:19:56;27.80;92.80
10451;DHT22;5273;51.290;6.918;2023-10-13T10:22:27;28.10;91.60
10451;DHT22;5273;51.290;6.918;2023-10-13T10:24:56;28.10;91.10
10451;DHT22;5273;51.290;6.918;2023-10-13T10:27:25;27.80;90.80
10451;DHT22;5273;51.290;6.918;2023-10-13T10:29:55;27.60;91.60
10451;DHT22;5273;51.290;6.918;2023-10-13T10:32:32;27.30;92.40
10451;DHT22;5273;51.290;6.918;2023-10-13T10:35:05;26.90;91.40
10451;DHT22;5273;51.290;6.918;2023-10-13T10:37:35;26.60;91.80
10451;DHT22;5273;51.290;6.918;2023-10-13T10:40:07;26.40;92.30
10451;DHT22;5273;51.290;6.918;2023-10-13T10:42:34;26.10;92.30
10451;DHT22;5273;51.290;6.918;2023-10-13T10:45:08;25.90;92.90
10451;DHT22;5273;51.290;6.918;2023-10-13T10:47:37;25.80;93.00
10451;DHT22;5273;51.290;6.918;2023-10-13T10:50:06;25.90;93.00
10451;DHT22;5273;51.290;6.918;2023-10-13T10:52:44;26.00;93.00
10451;DHT22;5273;51.290;6.918;2023-10-13T10:55:12;26.10;93.10
10451;DHT22;5273;51.290;6.918;2023-10-13T10:57:44;26.30;93.20
10451;DHT22;5273;51.290;6.918;2023-10-13T11:00:23;26.30;93.10
10451;DHT22;5273;51.290;6.918;2023-10-13T11:03:07;26.10;92.40
10451;DHT22;5273;51.290;6.918;2023-10-13T11:05:44;26.00;92.10
10451;DHT22;5273;51.290;6.918;2023-10-13T11:08:21;25.90;92.00
10451;DHT22;5273;51.290;6.918;2023-10-13T11:10:53;25.70;92.70
10451;DHT22;5273;51.290;6.918;2023-10-13T11:13:20;25.60;93.30
10451;DHT22;5273;51.290;6.918;2023-10-13T11:15:48;25.50;92.10
10451;DHT22;5273;51.290;6.918;2023-10-13T11:18:17;25.40;92.30
10451;DHT22;5273;51.290;6.918;2023-10-13T11:20:48;25.20;92.70
10451;DHT22;5273;51.290;6.918;2023-10-13T11:23:20;25.10;92.80
10451;DHT22;5273;51.290;6.918;2023-10-13T11:25:56;25.00;92.90
10451;DHT22;5273;51.290;6.918;2023-10-13T11:28:24;24.90;92.90
10451;DHT22;5273;51.290;6.918;2023-10-13T11:30:54;24.80;93.30
10451;DHT22;5273;51.290;6.918;2023-10-13T11:33:24;24.90;92.80
10451;DHT22;5273;51.290;6.918;2023-10-13T11:35:55;24.90;92.50
10451;DHT22;5273;51.290;6.918;2023-10-13T11:38:23;24.90;93.30
10451;DHT22;5273;51.290;6.918;2023-10-13T11:40:54;24.80;92.70
10451;DHT22;5273;51.290;6.918;2023-10-13T11:43:34;25.00;92.70
10451;DHT22;5273;51.290;6.918;2023-10-13T11:46:19;24.90;92.20
10451;DHT22;5273;51.290;6.918;2023-10-13T11:49:06;24.90;92.60
10451;DHT22;5273;51.290;6.918;2023-10-13T11:51:44;25.00;93.20
10451;DHT22;5273;51.290;6.918;2023-10-13T11:54:12;24.90;92.60
10451;DHT22;5273;51.290;6.918;2023-10-13T11:56:40;24.90;93.40
10451;DHT22;5273;51.290;6.918;2023-10-13T11:59:06;24.80;93.50
10451;DHT22;5273;51.290;6.918;2023-10-13T12:01:42;24.80;92.40
10451;DHT22;5273;51.290;6.918;2023-10-13T12:04:27;24.80;92.40
10451;DHT22;5273;51.290;6.918;2023-10-13T12:07:07;24.80;91.70
10451;DHT22;5273;51.290;6.918;2023-10-13T12:09:48;24.80;92.20
10451;DHT22;5273;51.290;6.918;2023-10-13T12:12:29;24.80;92.10
10451;DHT22;5273;51.290;6.918;2023-10-13T12:14:57;24.60;92.10
10451;DHT22;5273;51.290;6.918;2023-10-13T12:17:34;24.70;92.60
10451;DHT22;5273;51.290;6.918;2023-10-13T12:20:01;24.70;92.10
10451;DHT22;5273;51.290;6.918;2023-10-13T12:22:31;24.80;91.80
10451;DHT22;5273;51.290;6.918;2023-10-13T12:25:05;24.70;91.30
10451;DHT22;5273;51.290;6.918;2023-10-13T12:27:45;24.70;91.60
10451;DHT22;5273;51.290;6.918;2023-10-13T12:30:14;24.70;91.60
10451;DHT22;5273;51.290;6.918;2023-10-13T12:32:48;24.60;92.30
10451;DHT22;5273;51.290;6.918;2023-10-13T12:35:31;24.50;91.80
10451;DHT22;5273;51.290;6.918;2023-10-13T12:38:02;24.50;91.90
10451;DHT22;5273;51.290;6.918;2023-10-13T12:40:42;24.50;91.80
10451;DHT22;5273;51.290;6.918;2023-10-13T12:43:26;24.50;92.00
10451;DHT22;5273;51.290;6.918;2023-10-13T12:46:10;24.50;91.80
10451;DHT22;5273;51.290;6.918;2023-10-13T12:48:54;24.50;91.50
10451;DHT22;5273;51.290;6.918;2023-10-13T12:51:30;24.50;91.40
10451;DHT22;5273;51.290;6.918;2023-10-13T12:54:18;24.50;91.20
10451;DHT22;5273;51.290;6.918;2023-10-13T12:56:53;24.40;91.80
10451;DHT22;5273;51.290;6.918;2023-10-13T12:59:22;24.40;91.90
10451;DHT22;5273;51.290;6.918;2023-10-13T13:01:52;24.40;92.20
10451;DHT22;5273;51.290;6.918;2023-10-13T13:04:20;24.40;93.20
10451;DHT22;5273;51.290;6.918;2023-10-13T13:06:47;24.40;93.20
10451;DHT22;5273;51.290;6.918;2023-10-13T13:09:14;24.20;93.40
10451;DHT22;5273;51.290;6.918;2023-10-13T13:11:42;24.20;93.40
10451;DHT22;5273;51.290;6.918;2023-10-13T13:14:09;24.10;94.40
10451;DHT22;5273;51.290;6.918;2023-10-13T13:16:36;24.00;93.50
10451;DHT22;5273;51.290;6.918;2023-10-13T13:19:04;23.90;93.90
10451;DHT22;5273;51.290;6.918;2023-10-13T13:21:36;23.90;93.50
10451;DHT22;5273;51.290;6.918;2023-10-13T13:24:04;23.90;93.70
10451;DHT22;5273;51.290;6.918;2023-10-13T13:26:36;23.90;93.40
10451;DHT22;5273;51.290;6.918;2023-10-13T13:29:07;23.90;93.60
10451;DHT22;5273;51.290;6.918;2023-10-13T13:31:36;23.90;93.70
10451;DHT22;5273;51.290;6.918;2023-10-13T13:34:07;23.80;93.20
10451;DHT22;5273;51.290;6.918;2023-10-13T13:36:36;23.80;93.50
10451;DHT22;5273;51.290;6.918;2023-10-13T13:39:03;23.80;93.30
10451;DHT22;5273;51.290;6.918;2023-10-13T13:41:31;23.90;93.70
10451;DHT22;5273;51.290;6.918;2023-10-13T13:43:58;23.80;93.60
10451;DHT22;5273;51.290;6.918;2023-10-13T13:46:40;23.70;93.60
10451;DHT22;5273;51.290;6.918;2023-10-13T13:49:08;23.70;93.30
10451;DHT22;5273;51.290;6.918;2023-10-13T13:51:43;23.70;93.60
10451;DHT22;5273;51.290;6.918;2023-10-13T13:54:18;23.60;93.10
10451;DHT22;5273;51.290;6.918;2023-10-13T13:56:45;23.60;93.50
10451;DHT22;5273;51.290;6.918;2023-10-13T13:59:11;23.50;93.50
10451;DHT22;5273;51.290;6.918;2023-10-13T14:01:43;23.50;93.50
10451;DHT22;5273;51.290;6.918;2023-10-13T14:04:10;23.50;93.50
10451;DHT22;5273;51.290;6.918;2023-10-13T14:06:39;23.40;92.90
10451;DHT22;5273;51.290;6.918;2023-10-13T14:09:06;23.40;93.20
10451;DHT22;5273;51.290;6.918;2023-10-13T14:11:41;23.40;92.50
10451;DHT22;5273;51.290;6.918;2023-10-13T14:14:31;23.40;92.60
10451;DHT22;5273;51.290;6.918;2023-10-13T14:17:01;23.40;92.50
10451;DHT22;5273;51.290;6.918;2023-10-13T14:19:34;23.40;93.00
10451;DHT22;5273;51.290;6.918;2023-10-13T14:22:05;23.30;93.00
10451;DHT22;5273;51.290;6.918;2023-10-13T14:24:34;23.20;93.10
10451;DHT22;5273;51.290;6.918;2023-10-13T14:27:09;23.20;92.70
10451;DHT22;5273;51.290;6.918;2023-10-13T14:29:38;23.30;93.20
10451;DHT22;5273;51.290;6.918;2023-10-13T14:32:09;23.10;92.60
10451;DHT22;5273;51.290;6.918;2023-10-13T14:34:38;23.00;92.70
10451;DHT22;5273;51.290;6.918;2023-10-13T14:37:05;23.00;92.40
10451;DHT22;5273;51.290;6.918;2023-10-13T14:39:33;22.90;92.60
10451;DHT22;5273;51.290;6.918;2023-10-13T14:42:01;22.90;92.30
10451;DHT22;5273;51.290;6.918;2023-10-13T14:44:31;22.90;92.20
10451;DHT22;5273;51.290;6.918;2023-10-13T14:46:58;22.90;92.70
10451;DHT22;5273;51.290;6.918;2023-10-13T14:49:26;22.90;92.60
10451;DHT22;5273;51.290;6.918;2023-10-13T14:51:54;22.90;92.20
10451;DHT22;5273;51.290;6.918;2023-10-13T14:54:21;22.70;92.10
10451;DHT22;5273;51.290;6.918;2023-10-13T14:56:59;22.70;92.20
10451;DHT22;5273;51.290;6.918;2023-10-13T14:59:26;22.70;92.70
10451;DHT22;5273;51.290;6.918;2023-10-13T15:01:53;22.70;92.20
10451;DHT22;5273;51.290;6.918;2023-10-13T15:04:20;22.60;91.90
10451;DHT22;5273;51.290;6.918;2023-10-13T15:06:51;22.60;92.20
10451;DHT22;5273;51.290;6.918;2023-10-13T15:09:18;22.60;92.10
10451;DHT22;5273;51.290;6.918;2023-10-13T15:11:49;22.60;92.10
10451;DHT22;5273;51.290;6.918;2023-10-13T15:14:18;22.50;91.80
10451;DHT22;5273;51.290;6.918;2023-10-13T15:16:45;22.50;92.00
10451;DHT22;5273;51.290;6.918;2023-10-13T15:19:13;22.50;92.20
10451;DHT22;5273;51.290;6.918;2023-10-13T15:21:42;22.50;92.00
10451;DHT22;5273;51.290;6.918;2023-10-13T15:24:16;22.40;92.00
10451;DHT22;5273;51.290;6.918;2023-10-13T15:26:43;22.40;92.50
10451;DHT22;5273;51.290;6.918;2023-10-13T15:29:14;22.40;92.00
10451;DHT22;5273;51.290;6.918;2023-10-13T15:31:42;22.30;91.70
10451;DHT22;5273;51.290;6.918;2023-10-13T15:34:19;22.40;91.90
10451;DHT22;5273;51.290;6.918;2023-10-13T15:36:49;22.30;91.30
10451;DHT22;5273;51.290;6.918;2023-10-13T15:39:19;22.40;91.30
10451;DHT22;5273;51.290;6.918;2023-10-13T15:41:49;22.40;91.20
10451;DHT22;5273;51.290;6.918;2023-10-13T15:44:18;22.40;91.30
10451;DHT22;5273;51.290;6.918;2023-10-13T15:46:46;22.40;91.50
10451;DHT22;5273;51.290;6.918;2023-10-13T15:49:14;22.30;91.50
10451;DHT22;5273;51.290;6.918;2023-10-13T15:51:42;22.30;91.20
10451;DHT22;5273;51.290;6.918;2023-10-13T15:54:09;22.30;91.30
10451;DHT22;5273;51.290;6.918;2023-10-13T15:56:42;22.30;91.60
10451;DHT22;5273;51.290;6.918;2023-10-13T15:59:09;22.40;91.20
10451;DHT22;5273;51.290;6.918;2023-10-13T16:01:35;22.20;91.00
10451;DHT22;5273;51.290;6.918;2023-10-13T16:04:04;22.20;91.20
10451;DHT22;5273;51.290;6.918;2023-10-13T16:06:36;22.20;90.80
10451;DHT22;5273;51.290;6.918;2023-10-13T16:09:03;22.20;91.20
10451;DHT22;5273;51.290;6.918;2023-10-13T16:11:32;22.10;91.00
10451;DHT22;5273;51.290;6.918;2023-10-13T16:14:00;22.10;90.90
10451;DHT22;5273;51.290;6.918;2023-10-13T16:16:31;22.10;91.20
10451;DHT22;5273;51.290;6.918;2023-10-13T16:19:00;22.10;90.90
10451;DHT22;5273;51.290;6.918;2023-10-13T16:21:30;22.10;90.80
10451;DHT22;5273;51.290;6.918;2023-10-13T16:23:59;22.10;91.00
10451;DHT22;5273;51.290;6.918;2023-10-13T16:26:26;21.90;90.90